Startpagina
METAR-TAF:

METAR-TAF

Vliegvelden :

Vliegbasis Spangdahlem

Spangdahlem, Duitsland

breedte: 49-59N, lengte: 006-42E, hoogte: 365 m

Actueel weer

Dit bericht is 9 minuten geleden gemaakt, om 11:56 UTC
Wind 3 kt uit het noordnoordoosten
Temperatuur 21°C
Vochtigheid 38%
Druk 1024 hPa
Zicht 10 km of meer
Onbewolkt

METAR: ETAD 101156Z AUTO 03003KT 9999 CLR 21/06 A3024 RMK AO2 SLP224 T02070059 10207 20112 57010 $

Tijdstip: 14:05 (12:05 UTC)

Verwachting

Dit bericht is 2 uur en het 5 minuten geleden gemaakt, om 10:00 UTC
Verwachting geldig van 10 om 10 UTC tot 11 om 16 UTC
Wind 6 kt uit het noordoosten
Zicht 10 km of meer
Onbewolkt

TAF: ETAD 101000Z 1010/1116 05006KT 9999 SKC QNH3024INS TX22/1014Z TN06/1104Z

Waarnemingen en weersverwachtingen van meer dan 4000 vliegvelden (METAR en TAF).

De beschikbare stations zijn de gele en rode punten op de kaart.

Ga met uw muis naar het station om de naam te zien.

Klik dan om waarnemingen en weersverwachtingen te zien.

kaart wijzigen: klik op de groene knoppen met een zwart kruis om in te zoomen, op de groene knop met een streepje om uit te zoomen of op de groene pijlen voor aangrenzende kaarten.


METAR-TAF: